Time;durP1;ratioP1;P1;durP2;ratioP2;P2;SDS_P1;SDS_P2;PMS_P1;PMS_P2;Temp;Humidity;BMP_temperature;BMP_pressure;BME280_temperature;BME280_humidity;BME280_pressure;Samples;Min_cycle;Max_cycle;Signal;HPM_P1;HPM_P2
2022/09/20 00:01:23;;;;;;;2.78;1.20;;;;;;;;;;5030271;28;20198;-81
2022/09/20 00:03:52;;;;;;;3.78;1.30;;;;;;;;;;5030358;28;20210;-82
2022/09/20 00:06:23;;;;;;;5.40;1.73;;;;;;;;;;5032167;28;20198;-82
2022/09/20 00:08:51;;;;;;;1.88;1.50;;;;;;;;;;5024650;28;20214;-81
2022/09/20 00:11:23;;;;;;;4.03;1.30;;;;;;;;;;5032702;28;20313;-81
2022/09/20 00:13:54;;;;;;;1.50;1.30;;;;;;;;;;5033184;28;20218;-81
2022/09/20 00:16:24;;;;;;;2.13;1.20;;;;;;;;;;5030846;28;20589;-81
2022/09/20 00:18:53;;;;;;;3.78;1.70;;;;;;;;;;5032383;28;20592;-81
2022/09/20 00:21:24;;;;;;;3.55;1.63;;;;;;;;;;5031732;28;20681;-80
2022/09/20 00:23:52;;;;;;;2.25;1.60;;;;;;;;;;5032488;28;20809;-81
2022/09/20 00:26:20;;;;;;;2.88;1.95;;;;;;;;;;5031894;28;20897;-82
2022/09/20 00:28:50;;;;;;;1.42;1.33;;;;;;;;;;5032443;28;20193;-82
2022/09/20 00:31:18;;;;;;;2.17;1.58;;;;;;;;;;5031718;28;20217;-81
2022/09/20 00:36:31;;;;;;;3.17;1.50;;;;;;;;;;5019775;28;20580;-81
2022/09/20 00:39:01;;;;;;;3.22;1.20;;;;;;;;;;5032168;28;20203;-82
2022/09/20 00:41:31;;;;;;;4.65;1.60;;;;;;;;;;5031224;28;20734;-81
2022/09/20 00:44:00;;;;;;;3.97;1.50;;;;;;;;;;5032228;28;20321;-81
2022/09/20 00:46:34;;;;;;;3.20;1.20;;;;;;;;;;5032158;28;20202;-81
2022/09/20 00:49:07;;;;;;;1.85;1.30;;;;;;;;;;5032227;28;20286;-81
2022/09/20 00:51:36;;;;;;;2.08;1.25;;;;;;;;;;5031040;28;20218;-81
2022/09/20 00:54:05;;;;;;;4.18;1.65;;;;;;;;;;5027804;28;20202;-81
2022/09/20 00:56:37;;;;;;;5.43;1.67;;;;;;;;;;5022474;28;20511;-81
2022/09/20 00:59:15;;;;;;;3.33;1.38;;;;;;;;;;5032158;28;20522;-81
2022/09/20 01:01:43;;;;;;;2.28;1.33;;;;;;;;;;5027907;28;20686;-83
2022/09/20 01:04:13;;;;;;;3.25;1.33;;;;;;;;;;5031837;28;20704;-82
2022/09/20 01:06:40;;;;;;;5.35;1.80;;;;;;;;;;5024127;28;20196;-81
2022/09/20 01:09:09;;;;;;;2.40;1.45;;;;;;;;;;5029908;28;20282;-82
2022/09/20 01:11:37;;;;;;;3.22;1.52;;;;;;;;;;5034450;28;20214;-81
2022/09/20 01:14:06;;;;;;;2.42;1.77;;;;;;;;;;5035646;28;20289;-82
2022/09/20 01:16:34;;;;;;;4.25;1.55;;;;;;;;;;5035094;28;20245;-81
2022/09/20 01:19:06;;;;;;;1.27;0.90;;;;;;;;;;5035529;28;20207;-81
2022/09/20 01:21:33;;;;;;;2.75;1.88;;;;;;;;;;5035002;28;20297;-81
2022/09/20 01:24:09;;;;;;;2.22;1.30;;;;;;;;;;5035865;28;20222;-81
2022/09/20 01:27:05;;;;;;;4.93;1.85;;;;;;;;;;5032886;28;20201;-81
2022/09/20 01:30:03;;;;;;;2.72;1.15;;;;;;;;;;5035233;28;20203;-81
2022/09/20 01:32:46;;;;;;;2.75;1.35;;;;;;;;;;5033924;28;20240;-81
2022/09/20 01:35:14;;;;;;;1.75;1.02;;;;;;;;;;5034657;28;20222;-81
2022/09/20 01:37:54;;;;;;;2.08;1.10;;;;;;;;;;5034894;28;20199;-81
2022/09/20 01:40:29;;;;;;;3.97;1.65;;;;;;;;;;5033877;28;20673;-81
2022/09/20 01:43:06;;;;;;;2.13;1.25;;;;;;;;;;5033870;28;20218;-81
2022/09/20 01:45:35;;;;;;;2.75;1.40;;;;;;;;;;5034650;28;20674;-81
2022/09/20 01:48:12;;;;;;;2.78;1.48;;;;;;;;;;5034504;28;20600;-80
2022/09/20 01:51:15;;;;;;;2.30;1.33;;;;;;;;;;5034165;28;20656;-81
2022/09/20 01:54:20;;;;;;;2.33;1.20;;;;;;;;;;5034460;28;20210;-81
2022/09/20 01:57:41;;;;;;;2.05;1.25;;;;;;;;;;5014269;28;20202;-81
2022/09/20 02:00:13;;;;;;;2.13;1.17;;;;;;;;;;5033652;28;20194;-81
2022/09/20 02:03:14;;;;;;;3.17;1.40;;;;;;;;;;5032968;28;20289;-81
2022/09/20 02:06:04;;;;;;;4.47;2.45;;;;;;;;;;5028289;28;20221;-81
2022/09/20 02:09:17;;;;;;;2.33;1.48;;;;;;;;;;5034649;28;20214;-82
2022/09/20 02:11:59;;;;;;;2.42;1.35;;;;;;;;;;4977945;28;20299;-82
2022/09/20 02:14:42;;;;;;;2.90;1.60;;;;;;;;;;4985442;28;20290;-81
2022/09/20 02:17:17;;;;;;;2.72;1.20;;;;;;;;;;5018997;28;20201;-81
2022/09/20 02:20:19;;;;;;;3.08;1.25;;;;;;;;;;5033789;28;20194;-81
2022/09/20 02:23:16;;;;;;;2.40;1.40;;;;;;;;;;5022709;28;20264;-81
2022/09/20 02:26:10;;;;;;;3.38;1.88;;;;;;;;;;5017089;28;20201;-81
2022/09/20 02:28:53;;;;;;;2.13;1.27;;;;;;;;;;5018636;28;20194;-81
2022/09/20 02:31:56;;;;;;;3.08;1.60;;;;;;;;;;5033513;28;20232;-81
2022/09/20 02:34:59;;;;;;;5.22;1.52;;;;;;;;;;5028805;28;20218;-82
2022/09/20 02:37:55;;;;;;;2.35;1.60;;;;;;;;;;5028486;28;20202;-80
2022/09/20 02:40:40;;;;;;;6.10;2.10;;;;;;;;;;5031101;28;20198;-80
2022/09/20 02:43:15;;;;;;;3.55;1.42;;;;;;;;;;5033097;28;20225;-82
2022/09/20 02:45:50;;;;;;;4.18;1.50;;;;;;;;;;5033334;28;20194;-80
2022/09/20 02:48:23;;;;;;;4.50;2.08;;;;;;;;;;5033765;28;20208;-80
2022/09/20 02:50:59;;;;;;;2.90;1.80;;;;;;;;;;5032383;28;20201;-80
2022/09/20 02:53:37;;;;;;;5.07;1.58;;;;;;;;;;5031910;28;20218;-80
2022/09/20 02:56:11;;;;;;;2.50;1.40;;;;;;;;;;5019777;28;20201;-81
2022/09/20 02:58:50;;;;;;;5.25;2.22;;;;;;;;;;5024837;28;20213;-80
2022/09/20 03:01:39;;;;;;;2.75;1.45;;;;;;;;;;5032890;28;20208;-80
2022/09/20 03:04:24;;;;;;;3.78;1.70;;;;;;;;;;5029779;28;20198;-80
2022/09/20 03:06:58;;;;;;;2.95;1.70;;;;;;;;;;5026986;28;20194;-80
2022/09/20 03:09:34;;;;;;;2.72;1.55;;;;;;;;;;5013824;28;20883;-81
2022/09/20 03:12:14;;;;;;;3.03;1.98;;;;;;;;;;5026265;28;20305;-80
2022/09/20 03:14:47;;;;;;;3.80;1.80;;;;;;;;;;5032373;28;20196;-80
2022/09/20 03:17:23;;;;;;;3.92;1.55;;;;;;;;;;5019465;28;20209;-79
2022/09/20 03:20:20;;;;;;;3.13;1.80;;;;;;;;;;5029139;28;20635;-80
2022/09/20 03:22:57;;;;;;;2.47;1.70;;;;;;;;;;5030846;28;20217;-81
2022/09/20 03:25:47;;;;;;;3.40;2.30;;;;;;;;;;5029649;28;20200;-81
2022/09/20 03:28:43;;;;;;;1.70;1.60;;;;;;;;;;5013607;28;20210;-80
2022/09/20 03:31:24;;;;;;;1.38;1.20;;;;;;;;;;5031559;28;20617;-80
2022/09/20 03:34:00;;;;;;;2.47;1.60;;;;;;;;;;5031568;28;20218;-80
2022/09/20 03:36:45;;;;;;;2.55;1.70;;;;;;;;;;5031970;28;20206;-81
2022/09/20 03:40:01;;;;;;;4.00;1.83;;;;;;;;;;5031986;28;20198;-80
2022/09/20 03:42:31;;;;;;;3.05;1.67;;;;;;;;;;4989069;28;20305;-80
2022/09/20 03:45:38;;;;;;;5.78;1.98;;;;;;;;;;5032246;28;20584;-80
2022/09/20 03:48:29;;;;;;;3.03;1.75;;;;;;;;;;5015845;28;20663;-81
2022/09/20 03:51:18;;;;;;;4.93;1.70;;;;;;;;;;5022417;28;20210;-81
2022/09/20 03:54:32;;;;;;;3.60;1.95;;;;;;;;;;5032220;28;20222;-80
2022/09/20 03:57:45;;;;;;;1.70;1.60;;;;;;;;;;5031739;28;20197;-80
2022/09/20 04:00:24;;;;;;;2.25;1.90;;;;;;;;;;5030533;28;20659;-81
2022/09/20 04:03:19;;;;;;;2.47;1.90;;;;;;;;;;5021326;28;20217;-80
2022/09/20 04:06:02;;;;;;;4.38;1.85;;;;;;;;;;5031453;28;20198;-81
2022/09/20 04:08:49;;;;;;;10.02;2.92;;;;;;;;;;5032005;28;20202;-80
2022/09/20 04:11:23;;;;;;;2.42;2.10;;;;;;;;;;5031414;28;20205;-80
2022/09/20 04:13:56;;;;;;;2.63;2.08;;;;;;;;;;5028963;28;20623;-80
2022/09/20 04:16:35;;;;;;;4.93;2.50;;;;;;;;;;5022304;28;20758;-80
2022/09/20 04:19:10;;;;;;;4.03;2.20;;;;;;;;;;5031492;28;20202;-80
2022/09/20 04:21:43;;;;;;;6.38;2.80;;;;;;;;;;5030948;28;20206;-81
2022/09/20 04:24:16;;;;;;;3.72;2.22;;;;;;;;;;5031666;28;20684;-80
2022/09/20 04:26:49;;;;;;;3.05;2.15;;;;;;;;;;5031278;28;20194;-81
2022/09/20 04:29:32;;;;;;;4.80;2.63;;;;;;;;;;5031189;28;20201;-80
2022/09/20 04:32:07;;;;;;;2.67;2.35;;;;;;;;;;5030462;28;20305;-79
2022/09/20 04:37:31;;;;;;;2.90;2.15;;;;;;;;;;5031764;28;20217;-79
2022/09/20 04:40:09;;;;;;;3.35;2.03;;;;;;;;;;5030325;28;20195;-80
2022/09/20 04:43:17;;;;;;;4.32;1.90;;;;;;;;;;5018388;28;20214;-80
2022/09/20 04:47:04;;;;;;;6.57;2.80;;;;;;;;;;5031121;28;20547;-83
2022/09/20 04:50:17;;;;;;;4.70;2.13;;;;;;;;;;4973662;28;20204;-80
2022/09/20 04:53:21;;;;;;;2.92;2.03;;;;;;;;;;4960064;28;20224;-80
2022/09/20 04:55:55;;;;;;;4.00;2.03;;;;;;;;;;5032592;28;20198;-80
2022/09/20 04:59:00;;;;;;;3.15;2.70;;;;;;;;;;5034915;28;20565;-80
2022/09/20 05:02:18;;;;;;;2.45;2.25;;;;;;;;;;5027063;28;20584;-80
2022/09/20 05:05:43;;;;;;;3.10;2.30;;;;;;;;;;5035357;28;20290;-79
2022/09/20 05:09:00;;;;;;;5.63;2.90;;;;;;;;;;5014748;28;20194;-80
2022/09/20 05:12:05;;;;;;;2.88;2.33;;;;;;;;;;5034806;28;20198;-79
2022/09/20 05:14:56;;;;;;;3.30;2.28;;;;;;;;;;5034596;28;20232;-80
2022/09/20 05:17:38;;;;;;;5.60;2.55;;;;;;;;;;5034635;28;20277;-79
2022/09/20 05:20:47;;;;;;;4.63;2.50;;;;;;;;;;5034048;28;20238;-79
2022/09/20 05:23:46;;;;;;;3.35;2.38;;;;;;;;;;5015897;28;20219;-80
2022/09/20 05:26:19;;;;;;;4.43;2.70;;;;;;;;;;5034287;28;20220;-80
2022/09/20 05:28:56;;;;;;;3.25;2.45;;;;;;;;;;5034532;28;20191;-81
2022/09/20 05:31:36;;;;;;;4.05;2.20;;;;;;;;;;5033298;28;20220;-80
2022/09/20 05:34:16;;;;;;;5.45;2.75;;;;;;;;;;5027585;28;20224;-81
2022/09/20 05:36:54;;;;;;;2.65;2.30;;;;;;;;;;5034735;28;20205;-80
2022/09/20 05:39:36;;;;;;;2.85;2.40;;;;;;;;;;5026785;28;20264;-82
2022/09/20 05:42:14;;;;;;;4.25;2.17;;;;;;;;;;5034049;28;20220;-81
2022/09/20 05:44:56;;;;;;;3.28;2.30;;;;;;;;;;5034862;28;20285;-81
2022/09/20 05:47:35;;;;;;;2.20;2.00;;;;;;;;;;5035204;28;20298;-79
2022/09/20 05:50:34;;;;;;;2.80;2.17;;;;;;;;;;5034073;28;20216;-79
2022/09/20 05:53:44;;;;;;;2.75;2.35;;;;;;;;;;5022490;28;20214;-81
2022/09/20 05:56:22;;;;;;;5.72;2.00;;;;;;;;;;5033437;28;20197;-78
2022/09/20 05:59:05;;;;;;;3.60;2.20;;;;;;;;;;5034451;28;20205;-79
2022/09/20 06:01:37;;;;;;;3.03;2.05;;;;;;;;;;5033894;28;20554;-79
2022/09/20 06:04:16;;;;;;;3.42;2.00;;;;;;;;;;5035091;28;20602;-79
2022/09/20 06:06:54;;;;;;;4.35;2.20;;;;;;;;;;5034535;28;20198;-79
2022/09/20 06:09:47;;;;;;;3.08;2.17;;;;;;;;;;5035581;28;20204;-80
2022/09/20 06:12:43;;;;;;;6.82;2.67;;;;;;;;;;5032911;28;20229;-79
2022/09/20 06:15:20;;;;;;;2.95;2.33;;;;;;;;;;5028488;28;20285;-80
2022/09/20 06:17:56;;;;;;;2.25;2.03;;;;;;;;;;5033735;28;20211;-79
2022/09/20 06:20:29;;;;;;;6.85;2.85;;;;;;;;;;5033347;28;20652;-79
2022/09/20 06:23:01;;;;;;;3.05;2.75;;;;;;;;;;5032123;28;20249;-79
2022/09/20 06:25:31;;;;;;;5.05;2.63;;;;;;;;;;5019317;28;20197;-80
2022/09/20 06:28:01;;;;;;;4.30;2.33;;;;;;;;;;5034043;28;20209;-79
2022/09/20 06:30:34;;;;;;;3.90;2.67;;;;;;;;;;5033014;28;20203;-80
2022/09/20 06:33:15;;;;;;;6.80;2.95;;;;;;;;;;5033954;28;20218;-79
2022/09/20 06:35:47;;;;;;;3.40;2.33;;;;;;;;;;5030609;28;20214;-80
2022/09/20 06:41:31;;;;;;;6.82;2.10;;;;;;;;;;5031983;28;20682;-80
2022/09/20 06:44:00;;;;;;;2.22;1.90;;;;;;;;;;5033050;28;20221;-80
2022/09/20 06:46:28;;;;;;;2.83;1.90;;;;;;;;;;5025691;28;20191;-80
2022/09/20 06:48:56;;;;;;;3.53;2.13;;;;;;;;;;5023638;28;20704;-79
2022/09/20 06:51:24;;;;;;;3.10;1.95;;;;;;;;;;5029541;28;20654;-79
2022/09/20 06:53:54;;;;;;;6.90;2.20;;;;;;;;;;5032859;28;20219;-79
2022/09/20 06:56:23;;;;;;;2.90;1.70;;;;;;;;;;5027311;28;20213;-80
2022/09/20 06:58:52;;;;;;;2.17;1.48;;;;;;;;;;5029218;28;20198;-80
2022/09/20 07:01:19;;;;;;;3.83;1.60;;;;;;;;;;5032708;28;20260;-80
2022/09/20 07:03:47;;;;;;;4.40;1.63;;;;;;;;;;5032689;28;20220;-80
2022/09/20 07:06:17;;;;;;;3.55;2.05;;;;;;;;;;5032382;28;20301;-78
2022/09/20 07:08:44;;;;;;;1.88;1.30;;;;;;;;;;5012983;28;20199;-79
2022/09/20 07:11:16;;;;;;;1.58;1.20;;;;;;;;;;5011442;28;20199;-79
2022/09/20 07:13:44;;;;;;;2.38;1.45;;;;;;;;;;5027791;28;20218;-78
2022/09/20 07:16:13;;;;;;;3.83;2.50;;;;;;;;;;5031290;28;20202;-79
2022/09/20 07:18:41;;;;;;;3.92;1.73;;;;;;;;;;5021094;28;20677;-79
2022/09/20 07:21:11;;;;;;;3.97;1.60;;;;;;;;;;5033482;28;20234;-78
2022/09/20 07:23:38;;;;;;;4.03;1.60;;;;;;;;;;5032472;28;20710;-79
2022/09/20 07:26:06;;;;;;;2.75;1.85;;;;;;;;;;5032489;28;20208;-80
2022/09/20 07:28:36;;;;;;;2.33;2.00;;;;;;;;;;5032498;28;20580;-81
2022/09/20 07:31:03;;;;;;;4.60;1.70;;;;;;;;;;5028055;28;20201;-79
2022/09/20 07:33:31;;;;;;;5.68;2.13;;;;;;;;;;5030764;28;20220;-81
2022/09/20 07:35:58;;;;;;;2.78;1.52;;;;;;;;;;5022922;28;20226;-82
2022/09/20 07:38:26;;;;;;;4.43;2.05;;;;;;;;;;5027891;28;20205;-81
2022/09/20 07:40:57;;;;;;;3.53;1.92;;;;;;;;;;5032545;28;20294;-80
2022/09/20 07:43:25;;;;;;;2.00;1.60;;;;;;;;;;5032237;28;20230;-80
2022/09/20 07:45:54;;;;;;;2.35;1.50;;;;;;;;;;5032928;28;20201;-80
2022/09/20 07:48:24;;;;;;;1.67;1.38;;;;;;;;;;5023834;28;20202;-81
2022/09/20 07:50:52;;;;;;;1.73;1.58;;;;;;;;;;5031479;28;20202;-81
2022/09/20 07:53:20;;;;;;;5.03;1.98;;;;;;;;;;5031642;28;20218;-81
2022/09/20 07:55:58;;;;;;;5.25;1.75;;;;;;;;;;5032149;28;20214;-81
2022/09/20 07:58:26;;;;;;;3.25;1.60;;;;;;;;;;5032543;28;20202;-81
2022/09/20 08:00:57;;;;;;;4.45;2.00;;;;;;;;;;5032101;28;20194;-81
2022/09/20 08:03:24;;;;;;;4.35;1.85;;;;;;;;;;5021582;28;20215;-82
2022/09/20 08:05:52;;;;;;;2.05;1.30;;;;;;;;;;5031338;28;20632;-81
2022/09/20 08:08:20;;;;;;;3.00;1.85;;;;;;;;;;5032382;28;20610;-82
2022/09/20 08:10:48;;;;;;;7.35;2.25;;;;;;;;;;5032747;28;20194;-83
2022/09/20 08:13:16;;;;;;;3.63;1.75;;;;;;;;;;5031844;28;20301;-82
2022/09/20 08:15:44;;;;;;;5.03;2.00;;;;;;;;;;5031289;28;20226;-83
2022/09/20 08:18:13;;;;;;;1.63;1.30;;;;;;;;;;5029844;28;20648;-81
2022/09/20 08:20:41;;;;;;;3.38;1.88;;;;;;;;;;5032154;28;20260;-80
2022/09/20 08:23:08;;;;;;;4.05;1.80;;;;;;;;;;5031796;28;20657;-81
2022/09/20 08:25:38;;;;;;;7.40;3.05;;;;;;;;;;5022202;28;20646;-81
2022/09/20 08:28:05;;;;;;;5.60;2.33;;;;;;;;;;5016994;28;20201;-82
2022/09/20 08:30:33;;;;;;;6.10;2.00;;;;;;;;;;5029962;28;20190;-81
2022/09/20 08:33:00;;;;;;;2.10;1.90;;;;;;;;;;5030697;28;20324;-81
2022/09/20 08:35:29;;;;;;;3.65;1.98;;;;;;;;;;5026776;28;20253;-83
2022/09/20 08:37:58;;;;;;;2.28;2.00;;;;;;;;;;5035239;28;20225;-82
2022/09/20 08:40:25;;;;;;;3.72;2.08;;;;;;;;;;5028635;28;20256;-81
2022/09/20 08:42:54;;;;;;;4.28;2.55;;;;;;;;;;5025766;28;20741;-83
2022/09/20 08:45:25;;;;;;;2.95;2.00;;;;;;;;;;5033399;28;20281;-82
2022/09/20 08:47:55;;;;;;;3.00;2.20;;;;;;;;;;5033021;28;20222;-83
2022/09/20 08:50:23;;;;;;;4.03;2.22;;;;;;;;;;5032375;28;20217;-81
2022/09/20 08:52:57;;;;;;;3.05;2.10;;;;;;;;;;5031888;28;20242;-83
2022/09/20 08:55:30;;;;;;;3.80;2.10;;;;;;;;;;5032546;28;20217;-83
2022/09/20 08:57:58;;;;;;;4.63;2.30;;;;;;;;;;5033794;28;20205;-82
2022/09/20 09:00:31;;;;;;;2.40;2.13;;;;;;;;;;5033087;28;20218;-82
2022/09/20 09:03:03;;;;;;;3.03;2.45;;;;;;;;;;5032716;28;20218;-82
2022/09/20 09:05:34;;;;;;;5.10;2.53;;;;;;;;;;5031752;28;20213;-81
2022/09/20 09:08:07;;;;;;;4.50;2.95;;;;;;;;;;5033160;28;20206;-82
2022/09/20 09:10:38;;;;;;;3.10;2.17;;;;;;;;;;5023887;28;20298;-83
2022/09/20 09:13:07;;;;;;;4.20;2.78;;;;;;;;;;5033132;28;20308;-83
2022/09/20 09:15:36;;;;;;;2.83;2.20;;;;;;;;;;5032162;28;20302;-83
2022/09/20 09:18:05;;;;;;;4.20;2.13;;;;;;;;;;5033309;28;20214;-82
2022/09/20 09:20:46;;;;;;;2.50;1.90;;;;;;;;;;5031498;28;20214;-83
2022/09/20 09:23:26;;;;;;;3.17;2.20;;;;;;;;;;5031105;28;20218;-85
2022/09/20 09:25:54;;;;;;;3.90;3.28;;;;;;;;;;5033720;28;20209;-80
2022/09/20 09:28:25;;;;;;;3.72;2.15;;;;;;;;;;5033496;28;20205;-82
2022/09/20 09:30:53;;;;;;;6.57;2.00;;;;;;;;;;5033300;28;20579;-82
2022/09/20 09:33:26;;;;;;;3.38;1.98;;;;;;;;;;5036091;28;20214;-81
2022/09/20 09:36:06;;;;;;;2.22;1.60;;;;;;;;;;5031480;28;20222;-81
2022/09/20 09:38:37;;;;;;;3.40;1.92;;;;;;;;;;5034955;28;20213;-82
2022/09/20 09:41:10;;;;;;;3.72;2.33;;;;;;;;;;5035979;28;20202;-80
2022/09/20 09:43:39;;;;;;;6.18;2.70;;;;;;;;;;5034650;28;20217;-82
2022/09/20 09:46:21;;;;;;;1.67;1.58;;;;;;;;;;5035298;28;20218;-83
2022/09/20 09:49:07;;;;;;;1.85;1.60;;;;;;;;;;5033958;28;20198;-82
2022/09/20 09:51:35;;;;;;;7.90;1.60;;;;;;;;;;5035460;28;20207;-82
2022/09/20 09:54:06;;;;;;;2.38;1.50;;;;;;;;;;5027513;28;20222;-83
2022/09/20 09:56:47;;;;;;;1.60;1.50;;;;;;;;;;5034241;28;20656;-81
2022/09/20 09:59:46;;;;;;;3.28;1.55;;;;;;;;;;5025197;28;20222;-81
2022/09/20 10:02:49;;;;;;;1.73;1.48;;;;;;;;;;5032261;28;20245;-82
2022/09/20 10:05:22;;;;;;;1.42;1.20;;;;;;;;;;5032045;28;20198;-80
2022/09/20 10:07:59;;;;;;;2.45;1.10;;;;;;;;;;5031970;28;20671;-82
2022/09/20 10:10:33;;;;;;;2.22;1.23;;;;;;;;;;5035246;28;20189;-82
2022/09/20 10:13:14;;;;;;;1.20;1.10;;;;;;;;;;5034268;28;20225;-81
2022/09/20 10:15:47;;;;;;;2.47;1.50;;;;;;;;;;5034602;28;20198;-81
2022/09/20 10:18:27;;;;;;;2.13;1.17;;;;;;;;;;5018974;28;20298;-82
2022/09/20 10:21:08;;;;;;;2.45;1.20;;;;;;;;;;5034784;28;20206;-81
2022/09/20 10:23:57;;;;;;;2.70;1.33;;;;;;;;;;5034748;28;20222;-83
2022/09/20 10:26:43;;;;;;;1.50;1.08;;;;;;;;;;5034093;28;20260;-82
2022/09/20 10:29:24;;;;;;;2.83;1.20;;;;;;;;;;5035176;28;20210;-82
2022/09/20 10:32:02;;;;;;;2.45;1.40;;;;;;;;;;5028729;28;20232;-82
2022/09/20 10:34:53;;;;;;;1.08;1.00;;;;;;;;;;5018925;28;20216;-81
2022/09/20 10:37:28;;;;;;;3.15;1.67;;;;;;;;;;5033570;28;20218;-81
2022/09/20 10:40:06;;;;;;;2.38;1.10;;;;;;;;;;5034138;28;20210;-82
2022/09/20 10:45:35;;;;;;;2.13;1.27;;;;;;;;;;5034524;28;20269;-82
2022/09/20 10:48:07;;;;;;;3.13;1.10;;;;;;;;;;5034132;28;20205;-82
2022/09/20 10:50:42;;;;;;;2.83;1.45;;;;;;;;;;5034594;28;20237;-82
2022/09/20 10:53:26;;;;;;;2.33;1.92;;;;;;;;;;5033238;28;20661;-82
2022/09/20 10:56:08;;;;;;;2.60;1.52;;;;;;;;;;5033836;28;20202;-82
2022/09/20 10:58:59;;;;;;;1.05;1.05;;;;;;;;;;5033669;28;20234;-83
2022/09/20 11:01:32;;;;;;;2.78;1.15;;;;;;;;;;5028515;28;20693;-81
2022/09/20 11:04:28;;;;;;;1.05;0.90;;;;;;;;;;5023264;28;20222;-81
2022/09/20 11:07:06;;;;;;;1.40;1.10;;;;;;;;;;5015346;28;20289;-82
2022/09/20 11:09:38;;;;;;;2.17;1.27;;;;;;;;;;5033662;28;20674;-82
2022/09/20 11:12:14;;;;;;;1.42;1.02;;;;;;;;;;5033843;28;20225;-82
2022/09/20 11:14:48;;;;;;;4.57;1.70;;;;;;;;;;5033862;28;20233;-82
2022/09/20 11:17:22;;;;;;;1.58;1.10;;;;;;;;;;5032901;28;20226;-83
2022/09/20 11:19:56;;;;;;;1.45;0.95;;;;;;;;;;5033501;28;20672;-84
2022/09/20 11:22:27;;;;;;;1.58;1.00;;;;;;;;;;5032027;28;20224;-83
2022/09/20 11:25:01;;;;;;;5.90;2.15;;;;;;;;;;5031745;28;20281;-81
2022/09/20 11:27:32;;;;;;;1.85;1.00;;;;;;;;;;5025137;28;20195;-83
2022/09/20 11:30:07;;;;;;;1.20;1.10;;;;;;;;;;5025641;28;20209;-82
2022/09/20 11:32:38;;;;;;;1.77;1.10;;;;;;;;;;5033566;28;20225;-84
2022/09/20 11:35:26;;;;;;;1.65;1.00;;;;;;;;;;5032862;28;20655;-84
2022/09/20 11:38:03;;;;;;;2.08;0.95;;;;;;;;;;5032709;28;20214;-83
2022/09/20 11:40:35;;;;;;;1.98;1.30;;;;;;;;;;5033671;28;20566;-85
2022/09/20 11:43:06;;;;;;;3.78;1.08;;;;;;;;;;5036787;28;20706;-83
2022/09/20 11:45:35;;;;;;;2.70;0.88;;;;;;;;;;5033435;28;20206;-83
2022/09/20 11:48:07;;;;;;;1.70;1.27;;;;;;;;;;5022470;28;20576;-86
2022/09/20 11:51:12;;;;;;;2.92;1.23;;;;;;;;;;5016668;28;20201;-82
2022/09/20 11:53:54;;;;;;;2.10;1.10;;;;;;;;;;5013829;28;20597;-81
2022/09/20 11:56:24;;;;;;;1.70;1.00;;;;;;;;;;5013294;28;20207;-83
2022/09/20 11:58:54;;;;;;;6.90;1.38;;;;;;;;;;5031424;28;20229;-83
2022/09/20 12:01:28;;;;;;;2.78;1.10;;;;;;;;;;5033187;28;20229;-83
2022/09/20 12:03:57;;;;;;;1.63;0.90;;;;;;;;;;5032425;28;20610;-83
2022/09/20 12:06:29;;;;;;;2.35;0.98;;;;;;;;;;5032346;28;20206;-83
2022/09/20 12:08:58;;;;;;;1.30;0.90;;;;;;;;;;5033067;28;20199;-83
2022/09/20 12:11:32;;;;;;;1.83;1.00;;;;;;;;;;5032633;28;20670;-82
2022/09/20 12:14:04;;;;;;;1.15;1.05;;;;;;;;;;5033257;28;20230;-82
2022/09/20 12:16:44;;;;;;;1.90;0.90;;;;;;;;;;5032444;28;20512;-82
2022/09/20 12:19:13;;;;;;;2.88;0.73;;;;;;;;;;5033144;28;20210;-82
2022/09/20 12:22:28;;;;;;;1.65;1.00;;;;;;;;;;5033270;28;20239;-83
2022/09/20 12:26:00;;;;;;;0.95;0.90;;;;;;;;;;5013563;28;20211;-83
2022/09/20 12:28:34;;;;;;;2.38;1.27;;;;;;;;;;4998286;28;20198;-83
2022/09/20 12:31:40;;;;;;;1.02;0.90;;;;;;;;;;5032691;28;20673;-84
2022/09/20 12:34:34;;;;;;;0.80;0.80;;;;;;;;;;5032266;28;20210;-83
2022/09/20 12:37:25;;;;;;;2.28;0.98;;;;;;;;;;5031470;28;20210;-82
2022/09/20 12:39:55;;;;;;;0.55;0.55;;;;;;;;;;5017529;28;20292;-83
2022/09/20 12:42:30;;;;;;;1.70;1.17;;;;;;;;;;5032183;28;20218;-83
2022/09/20 12:45:02;;;;;;;2.60;0.90;;;;;;;;;;5032338;28;20686;-81
2022/09/20 12:47:32;;;;;;;1.13;0.88;;;;;;;;;;5030923;28;20187;-84
2022/09/20 12:52:59;;;;;;;1.23;0.85;;;;;;;;;;5018249;28;20248;-81
2022/09/20 12:55:37;;;;;;;1.15;0.95;;;;;;;;;;5032296;28;20627;-83
2022/09/20 12:58:09;;;;;;;1.05;0.70;;;;;;;;;;5021422;28;20277;-81
2022/09/20 13:00:41;;;;;;;2.78;0.65;;;;;;;;;;5013237;28;20848;-84
2022/09/20 13:03:23;;;;;;;0.63;0.60;;;;;;;;;;5012616;28;20314;-83
2022/09/20 13:06:26;;;;;;;1.35;0.73;;;;;;;;;;5035121;28;20244;-82
2022/09/20 13:09:04;;;;;;;0.80;0.73;;;;;;;;;;5046106;28;20190;-83
2022/09/20 13:11:38;;;;;;;1.25;0.70;;;;;;;;;;5046803;28;20201;-83
2022/09/20 13:14:12;;;;;;;0.85;0.73;;;;;;;;;;5046471;28;20202;-82
2022/09/20 13:16:50;;;;;;;0.65;0.65;;;;;;;;;;5020496;28;20206;-84
2022/09/20 13:19:20;;;;;;;0.70;0.70;;;;;;;;;;5034108;28;20226;-81
2022/09/20 13:21:56;;;;;;;0.60;0.60;;;;;;;;;;5038328;28;20213;-83
2022/09/20 13:24:27;;;;;;;3.45;0.80;;;;;;;;;;5039454;28;20285;-83
2022/09/20 13:26:56;;;;;;;1.13;1.00;;;;;;;;;;5039616;28;20205;-83
2022/09/20 13:29:32;;;;;;;1.42;1.00;;;;;;;;;;5038349;28;20683;-82
2022/09/20 13:32:17;;;;;;;1.55;0.80;;;;;;;;;;5038163;28;20201;-83
2022/09/20 13:34:45;;;;;;;1.58;0.70;;;;;;;;;;5025152;28;20236;-83
2022/09/20 13:37:19;;;;;;;0.82;0.52;;;;;;;;;;5039478;28;20209;-83
2022/09/20 13:39:47;;;;;;;2.88;1.33;;;;;;;;;;5019100;28;20702;-84
2022/09/20 13:42:18;;;;;;;1.85;0.93;;;;;;;;;;5019022;28;20245;-83
2022/09/20 13:44:46;;;;;;;0.98;0.82;;;;;;;;;;5037114;28;20202;-82
2022/09/20 13:47:25;;;;;;;5.28;0.90;;;;;;;;;;5017437;28;20191;-83
2022/09/20 13:49:54;;;;;;;2.00;0.65;;;;;;;;;;5036198;28;20209;-82
2022/09/20 13:52:29;;;;;;;1.08;1.00;;;;;;;;;;5038359;28;20234;-83
2022/09/20 13:54:56;;;;;;;1.33;0.88;;;;;;;;;;5037592;28;20624;-81
2022/09/20 13:57:28;;;;;;;1.88;1.00;;;;;;;;;;5036791;28;20298;-82
2022/09/20 13:59:56;;;;;;;0.60;0.60;;;;;;;;;;5038147;28;20222;-82
2022/09/20 14:02:27;;;;;;;1.88;0.90;;;;;;;;;;5037504;28;20218;-83
2022/09/20 14:04:57;;;;;;;1.70;1.02;;;;;;;;;;5026223;28;20248;-80
2022/09/20 14:07:28;;;;;;;1.02;0.98;;;;;;;;;;5037951;28;20221;-81
2022/09/20 14:09:57;;;;;;;1.23;0.77;;;;;;;;;;5038511;28;20207;-81
2022/09/20 14:12:26;;;;;;;1.63;0.80;;;;;;;;;;5036753;28;20222;-82
2022/09/20 14:14:54;;;;;;;0.70;0.70;;;;;;;;;;5018078;28;20195;-82
2022/09/20 14:17:24;;;;;;;0.82;0.80;;;;;;;;;;5018362;28;20234;-82
2022/09/20 14:19:53;;;;;;;0.45;0.45;;;;;;;;;;5035063;28;20230;-81
2022/09/20 14:22:27;;;;;;;0.80;0.70;;;;;;;;;;5037220;28;20230;-82
2022/09/20 14:25:01;;;;;;;1.33;0.88;;;;;;;;;;5036543;28;20666;-82
2022/09/20 14:27:30;;;;;;;0.70;0.70;;;;;;;;;;5036756;28;20201;-81
2022/09/20 14:29:58;;;;;;;1.48;0.70;;;;;;;;;;5037480;28;20244;-82
2022/09/20 14:32:39;;;;;;;1.42;0.95;;;;;;;;;;5036167;28;20226;-81
2022/09/20 14:35:16;;;;;;;4.45;0.85;;;;;;;;;;5035877;28;20202;-81
2022/09/20 14:37:47;;;;;;;1.60;0.68;;;;;;;;;;5035605;28;20202;-81
2022/09/20 14:40:25;;;;;;;0.68;0.47;;;;;;;;;;5034521;28;20222;-82
2022/09/20 14:42:57;;;;;;;1.38;0.63;;;;;;;;;;5034799;28;20210;-82
2022/09/20 14:45:31;;;;;;;1.80;0.68;;;;;;;;;;5033691;28;20207;-81
2022/09/20 14:48:03;;;;;;;1.45;1.35;;;;;;;;;;5032801;28;20205;-80
2022/09/20 14:50:32;;;;;;;0.75;0.75;;;;;;;;;;5026448;28;20678;-80
2022/09/20 14:53:06;;;;;;;1.55;0.60;;;;;;;;;;5031882;28;20684;-80
2022/09/20 14:55:36;;;;;;;1.52;0.80;;;;;;;;;;5030675;28;20743;-80
2022/09/20 14:58:09;;;;;;;1.75;1.15;;;;;;;;;;5033343;28;20205;-80
2022/09/20 15:00:49;;;;;;;1.23;1.00;;;;;;;;;;5033029;28;20244;-80
2022/09/20 15:03:21;;;;;;;1.20;0.88;;;;;;;;;;5025523;28;20226;-81
2022/09/20 15:05:51;;;;;;;1.02;0.80;;;;;;;;;;5025829;28;20201;-81
2022/09/20 15:08:20;;;;;;;0.63;0.63;;;;;;;;;;5025871;28;20294;-81
2022/09/20 15:10:48;;;;;;;0.90;0.90;;;;;;;;;;5029753;28;20214;-84
2022/09/20 15:13:16;;;;;;;0.70;0.70;;;;;;;;;;5030476;28;20994;-82
2022/09/20 15:15:44;;;;;;;1.27;0.90;;;;;;;;;;5030132;28;20206;-82
2022/09/20 15:18:23;;;;;;;2.08;1.20;;;;;;;;;;5033449;28;20198;-81
2022/09/20 15:20:51;;;;;;;1.75;0.90;;;;;;;;;;5034092;28;20725;-80
2022/09/20 15:23:20;;;;;;;1.08;0.70;;;;;;;;;;5028488;28;20662;-81
2022/09/20 15:25:51;;;;;;;0.60;0.57;;;;;;;;;;5032092;28;20211;-80
2022/09/20 15:28:19;;;;;;;0.60;0.60;;;;;;;;;;5029875;28;20300;-81
2022/09/20 15:30:49;;;;;;;0.30;0.30;;;;;;;;;;5030116;28;20186;-81
2022/09/20 15:33:17;;;;;;;0.32;0.32;;;;;;;;;;5030634;28;20214;-81
2022/09/20 15:35:45;;;;;;;0.50;0.50;;;;;;;;;;5026631;28;20293;-81
2022/09/20 15:38:14;;;;;;;1.73;0.68;;;;;;;;;;5026056;28;20198;-80
2022/09/20 15:40:46;;;;;;;0.68;0.68;;;;;;;;;;5031166;28;20593;-79
2022/09/20 15:43:16;;;;;;;1.13;0.70;;;;;;;;;;5031748;28;20222;-79
2022/09/20 15:45:50;;;;;;;0.70;0.70;;;;;;;;;;5031726;28;20199;-81
2022/09/20 15:48:20;;;;;;;1.10;1.05;;;;;;;;;;5020908;28;20205;-79
2022/09/20 15:51:01;;;;;;;1.60;0.75;;;;;;;;;;5032531;28;20194;-82
2022/09/20 15:53:33;;;;;;;1.48;0.77;;;;;;;;;;5033015;28;20780;-81
2022/09/20 15:56:03;;;;;;;0.68;0.68;;;;;;;;;;5034853;28;20264;-82
2022/09/20 15:58:33;;;;;;;1.48;1.00;;;;;;;;;;5020500;28;20566;-81